Time;durP1;ratioP1;P1;durP2;ratioP2;P2;SDS_P1;SDS_P2;PMS_P1;PMS_P2;Temp;Humidity;BMP_temperature;BMP_pressure;BME280_temperature;BME280_humidity;BME280_pressure;Samples;Min_cycle;Max_cycle;Signal;HPM_P1;HPM_P2
2021/05/15 00:00:28;;;;;;;1.17;1.07;;;11.00;99.90;;;;;;4897915;29;20459;-64
2021/05/15 00:02:54;;;;;;;1.07;0.97;;;10.90;99.90;;;;;;4899151;29;20608;-65
2021/05/15 00:05:19;;;;;;;1.80;1.50;;;10.80;99.90;;;;;;4898583;29;20560;-66
2021/05/15 00:07:45;;;;;;;2.50;1.47;;;10.80;99.90;;;;;;4898912;29;20541;-65
2021/05/15 00:10:11;;;;;;;1.30;1.10;;;10.70;99.90;;;;;;4898133;29;20170;-65
2021/05/15 00:12:36;;;;;;;1.90;1.80;;;10.70;99.90;;;;;;4898822;29;20175;-65
2021/05/15 00:15:04;;;;;;;1.30;1.20;;;10.70;99.90;;;;;;4898435;29;20438;-66
2021/05/15 00:17:29;;;;;;;1.60;1.30;;;10.60;99.90;;;;;;4898427;29;20179;-65
2021/05/15 00:19:55;;;;;;;1.03;0.97;;;10.60;99.90;;;;;;4894742;29;20448;-66
2021/05/15 00:22:20;;;;;;;1.23;1.13;;;10.60;99.90;;;;;;4898210;29;20305;-65
2021/05/15 00:24:46;;;;;;;3.63;1.30;;;10.50;99.90;;;;;;4898252;29;20206;-65
2021/05/15 00:27:11;;;;;;;1.53;1.43;;;10.60;99.90;;;;;;4898482;29;20168;-66
2021/05/15 00:29:37;;;;;;;1.43;1.30;;;10.60;99.90;;;;;;4897737;29;20186;-65
2021/05/15 00:32:03;;;;;;;2.30;0.90;;;10.50;99.90;;;;;;4897175;29;20179;-64
2021/05/15 00:36:57;;;;;;;1.57;0.90;;;10.50;99.90;;;;;;4951417;23;20526;-67
2021/05/15 00:39:22;;;;;;;0.80;0.80;;;10.40;99.90;;;;;;4916316;29;20510;-67
2021/05/15 00:41:48;;;;;;;4.57;1.47;;;10.40;99.90;;;;;;4916868;29;20210;-67
2021/05/15 00:46:49;;;;;;;2.50;1.13;;;10.40;99.90;;;;;;4898894;29;20442;-67
2021/05/15 00:49:14;;;;;;;1.20;1.10;;;10.30;99.90;;;;;;4897591;29;20951;-64
2021/05/15 00:51:41;;;;;;;2.33;1.00;;;10.30;99.90;;;;;;4897882;29;20167;-64
2021/05/15 00:54:10;;;;;;;1.23;1.10;;;10.30;99.90;;;;;;4898070;29;20171;-64
2021/05/15 00:56:36;;;;;;;1.10;1.00;;;10.30;99.90;;;;;;4897763;29;20450;-64
2021/05/15 00:59:02;;;;;;;1.13;0.80;;;10.20;99.90;;;;;;4897234;29;20439;-64
2021/05/15 01:01:28;;;;;;;0.73;0.73;;;10.20;99.90;;;;;;4897625;29;20203;-64
2021/05/15 01:03:54;;;;;;;1.30;1.20;;;10.20;99.90;;;;;;4897596;29;20415;-64
2021/05/15 01:06:20;;;;;;;1.87;1.37;;;10.20;99.90;;;;;;4897567;29;20634;-64
2021/05/15 01:08:46;;;;;;;1.90;1.00;;;10.10;99.90;;;;;;4896566;29;20506;-64
2021/05/15 01:11:18;;;;;;;1.37;1.10;;;10.10;99.90;;;;;;4897558;29;20459;-64
2021/05/15 01:13:50;;;;;;;0.90;0.90;;;10.10;99.90;;;;;;4897495;29;20428;-64
2021/05/15 01:16:16;;;;;;;1.10;1.00;;;10.10;99.90;;;;;;4897218;29;20443;-64
2021/05/15 01:18:42;;;;;;;2.50;1.10;;;10.10;99.90;;;;;;4897005;29;20949;-64
2021/05/15 01:21:07;;;;;;;1.07;0.97;;;10.10;99.90;;;;;;4895100;29;20195;-64
2021/05/15 01:23:33;;;;;;;1.97;1.10;;;10.10;99.90;;;;;;4897311;29;20171;-64
2021/05/15 01:25:58;;;;;;;2.30;1.47;;;10.00;99.90;;;;;;4897326;29;20270;-64
2021/05/15 01:28:29;;;;;;;4.20;1.50;;;10.00;99.90;;;;;;4897133;29;20535;-64
2021/05/15 01:30:54;;;;;;;1.10;1.00;;;10.00;99.90;;;;;;4896464;29;20179;-64
2021/05/15 01:33:20;;;;;;;2.20;1.13;;;9.90;99.90;;;;;;4897065;29;20791;-64
2021/05/15 01:35:45;;;;;;;1.50;1.30;;;9.90;99.90;;;;;;4896939;29;20593;-64
2021/05/15 01:38:11;;;;;;;2.80;1.47;;;9.90;99.90;;;;;;4897079;29;20507;-64
2021/05/15 01:40:36;;;;;;;1.10;1.00;;;9.90;99.90;;;;;;4896307;29;20707;-64
2021/05/15 01:43:02;;;;;;;1.87;1.10;;;9.90;99.90;;;;;;4896899;29;20638;-64
2021/05/15 01:45:27;;;;;;;1.00;1.00;;;9.80;99.90;;;;;;4896746;29;20269;-64
2021/05/15 01:47:53;;;;;;;2.00;1.40;;;9.80;99.90;;;;;;4896710;29;20676;-64
2021/05/15 01:50:18;;;;;;;1.63;1.10;;;9.80;99.90;;;;;;4896224;29;20246;-64
2021/05/15 01:52:44;;;;;;;2.30;1.40;;;9.80;99.90;;;;;;4896735;29;20178;-64
2021/05/15 01:55:20;;;;;;;2.23;1.10;;;9.70;99.90;;;;;;4896612;29;20266;-64
2021/05/15 01:57:46;;;;;;;1.90;1.13;;;9.70;99.90;;;;;;4896566;29;20175;-64
2021/05/15 02:00:13;;;;;;;1.77;1.37;;;9.70;99.90;;;;;;4895676;29;20964;-64
2021/05/15 02:02:38;;;;;;;4.30;1.20;;;9.60;99.90;;;;;;4896718;29;20427;-66
2021/05/15 02:05:04;;;;;;;1.63;1.53;;;9.60;99.90;;;;;;4896417;29;20443;-67
2021/05/15 02:07:30;;;;;;;1.30;1.20;;;9.60;99.90;;;;;;4896488;29;20692;-67
2021/05/15 02:09:55;;;;;;;1.40;1.07;;;9.60;99.90;;;;;;4895904;29;20482;-67
2021/05/15 02:12:21;;;;;;;1.10;1.00;;;9.50;99.90;;;;;;4896349;29;20598;-67
2021/05/15 02:14:46;;;;;;;2.83;2.40;;;9.60;99.90;;;;;;4896385;29;20213;-67
2021/05/15 02:17:12;;;;;;;1.07;0.97;;;9.60;99.90;;;;;;4896349;29;20175;-67
2021/05/15 02:19:37;;;;;;;1.53;1.10;;;9.60;99.90;;;;;;4895918;29;20181;-67
2021/05/15 02:22:03;;;;;;;1.30;1.20;;;9.50;99.90;;;;;;4895452;29;20206;-67
2021/05/15 02:24:28;;;;;;;2.27;1.33;;;9.50;99.90;;;;;;4896105;29;20243;-67
2021/05/15 02:26:54;;;;;;;6.23;1.20;;;9.50;99.90;;;;;;4896014;29;20529;-67
2021/05/15 02:29:19;;;;;;;3.30;1.33;;;9.50;99.90;;;;;;4895408;29;20179;-64
2021/05/15 02:31:45;;;;;;;2.57;1.40;;;9.50;99.90;;;;;;4896030;29;20182;-64
2021/05/15 02:34:10;;;;;;;1.30;1.00;;;9.50;99.90;;;;;;4896057;29;20187;-64
2021/05/15 02:36:36;;;;;;;1.20;1.00;;;9.40;99.90;;;;;;4895877;29;20245;-64
2021/05/15 02:39:03;;;;;;;1.93;1.20;;;;;;;;;;4895362;29;20187;-64
2021/05/15 02:41:30;;;;;;;1.43;1.00;;;;;;;;;;4895959;29;20290;-64
2021/05/15 02:43:56;;;;;;;0.97;0.93;;;9.70;99.90;;;;;;4895966;29;20426;-64
2021/05/15 02:46:21;;;;;;;1.40;1.30;;;9.50;99.90;;;;;;4895654;29;20447;-64
2021/05/15 02:48:47;;;;;;;1.47;1.37;;;9.40;99.90;;;;;;4895171;29;20235;-64
2021/05/15 02:51:12;;;;;;;1.00;1.00;;;9.40;99.90;;;;;;4895805;29;20171;-64
2021/05/15 02:53:38;;;;;;;2.43;0.93;;;9.40;99.90;;;;;;4895930;29;20213;-64
2021/05/15 02:56:04;;;;;;;1.73;1.37;;;9.40;99.90;;;;;;4895669;29;20692;-64
2021/05/15 02:58:29;;;;;;;1.00;1.00;;;9.40;99.90;;;;;;4895807;29;20189;-64
2021/05/15 03:00:55;;;;;;;1.60;1.50;;;9.40;99.90;;;;;;4894956;29;20544;-64
2021/05/15 03:03:22;;;;;;;2.07;1.23;;;9.30;99.90;;;;;;4896121;29;20260;-64
2021/05/15 03:05:48;;;;;;;1.33;1.23;;;9.30;99.90;;;;;;4895674;29;20456;-64
2021/05/15 03:08:13;;;;;;;1.50;1.30;;;9.20;99.90;;;;;;4894585;29;20596;-64
2021/05/15 03:10:39;;;;;;;1.53;1.43;;;9.10;99.90;;;;;;4895006;29;20840;-64
2021/05/15 03:13:04;;;;;;;1.37;1.27;;;9.00;99.90;;;;;;4895640;29;20288;-64
2021/05/15 03:15:30;;;;;;;1.20;1.10;;;8.90;99.90;;;;;;4895443;29;20198;-64
2021/05/15 03:17:56;;;;;;;1.80;1.33;;;8.90;99.90;;;;;;4895649;29;20555;-64
2021/05/15 03:20:24;;;;;;;1.37;1.20;;;8.80;99.90;;;;;;4894847;29;20187;-64
2021/05/15 03:22:50;;;;;;;2.70;1.50;;;8.80;99.90;;;;;;4896029;29;20510;-64
2021/05/15 03:25:17;;;;;;;2.03;1.77;;;8.90;99.90;;;;;;4895387;29;20438;-64
2021/05/15 03:27:43;;;;;;;1.40;1.30;;;8.80;99.90;;;;;;4895551;29;20415;-64
2021/05/15 03:30:10;;;;;;;2.40;1.60;;;8.80;99.90;;;;;;4894990;29;20787;-64
2021/05/15 03:32:36;;;;;;;4.73;2.07;;;8.80;99.90;;;;;;4897071;29;20253;-65
2021/05/15 03:35:03;;;;;;;1.30;1.20;;;8.90;99.90;;;;;;4899067;29;20458;-64
2021/05/15 03:37:29;;;;;;;2.77;1.50;;;8.90;99.90;;;;;;4899226;29;20518;-64
2021/05/15 03:39:54;;;;;;;1.43;1.33;;;8.90;99.90;;;;;;4898352;29;20518;-64
2021/05/15 03:42:20;;;;;;;1.87;1.20;;;8.90;99.90;;;;;;4898957;29;20254;-64
2021/05/15 03:44:45;;;;;;;2.23;2.03;;;8.90;99.90;;;;;;4898982;29;20175;-64
2021/05/15 03:47:11;;;;;;;2.17;1.70;;;8.90;99.90;;;;;;4899015;29;20227;-65
2021/05/15 03:49:36;;;;;;;2.40;1.80;;;8.90;99.90;;;;;;4898472;29;20503;-64
2021/05/15 03:52:02;;;;;;;2.90;2.40;;;8.90;99.90;;;;;;4898824;29;20182;-64
2021/05/15 03:54:28;;;;;;;2.17;1.63;;;8.90;99.90;;;;;;4898735;29;20183;-64
2021/05/15 03:56:53;;;;;;;2.40;2.10;;;8.90;99.90;;;;;;4898760;29;20202;-64
2021/05/15 03:59:19;;;;;;;1.70;1.30;;;8.90;99.90;;;;;;4898274;29;20179;-64
2021/05/15 04:01:48;;;;;;;3.00;1.87;;;8.90;99.90;;;;;;4898801;29;20211;-64
2021/05/15 04:04:13;;;;;;;2.10;1.93;;;9.00;99.90;;;;;;4898642;29;20459;-64
2021/05/15 04:06:39;;;;;;;2.43;1.27;;;9.00;99.90;;;;;;4898508;29;20534;-64
2021/05/15 04:09:05;;;;;;;1.87;1.77;;;9.20;99.90;;;;;;4896629;29;20182;-65
2021/05/15 04:11:35;;;;;;;3.63;1.80;;;9.50;99.90;;;;;;4898797;29;20190;-64
2021/05/15 04:19:12;;;;;;;1.73;1.33;;;10.00;99.90;;;;;;4897817;29;20780;-64
2021/05/15 04:21:38;;;;;;;2.23;1.50;;;10.00;99.90;;;;;;4898337;29;20466;-64
2021/05/15 04:24:04;;;;;;;1.40;1.30;;;10.00;99.90;;;;;;4898535;29;20175;-64
2021/05/15 04:26:30;;;;;;;1.70;1.40;;;10.00;99.90;;;;;;4898455;29;20218;-64
2021/05/15 04:28:55;;;;;;;1.60;1.50;;;9.90;99.90;;;;;;4897648;29;20432;-64
2021/05/15 04:31:21;;;;;;;1.60;1.50;;;9.80;99.90;;;;;;4898292;29;20182;-64
2021/05/15 04:33:46;;;;;;;2.03;1.67;;;9.90;99.90;;;;;;4898287;29;20559;-64
2021/05/15 04:36:12;;;;;;;1.97;1.60;;;9.90;99.90;;;;;;4897898;29;20237;-64
2021/05/15 04:38:37;;;;;;;2.00;1.30;;;9.80;99.90;;;;;;4897768;29;20179;-67
2021/05/15 04:41:03;;;;;;;1.67;1.57;;;9.80;99.90;;;;;;4897996;29;20495;-67
2021/05/15 04:43:28;;;;;;;1.70;1.60;;;9.90;99.90;;;;;;4897464;29;20182;-67
2021/05/15 04:45:55;;;;;;;3.10;1.70;;;9.90;99.90;;;;;;4898013;29;20692;-64
2021/05/15 04:48:21;;;;;;;2.03;1.93;;;10.00;99.90;;;;;;4898448;29;20167;-64
2021/05/15 04:50:47;;;;;;;1.67;1.57;;;10.10;99.90;;;;;;4897228;29;20496;-64
2021/05/15 04:53:12;;;;;;;1.90;1.80;;;10.20;99.90;;;;;;4897953;29;20258;-64
2021/05/15 04:55:38;;;;;;;2.93;1.73;;;10.20;99.90;;;;;;4898119;29;20203;-64
2021/05/15 04:58:03;;;;;;;2.77;2.07;;;10.20;99.90;;;;;;4897807;29;20598;-64
2021/05/15 05:00:29;;;;;;;2.23;1.40;;;10.20;99.90;;;;;;4896852;29;20175;-64
2021/05/15 05:02:54;;;;;;;1.67;1.57;;;10.30;99.90;;;;;;4897657;29;20179;-64
2021/05/15 05:05:21;;;;;;;1.90;1.53;;;10.30;99.90;;;;;;4897474;29;20203;-64
2021/05/15 05:07:47;;;;;;;1.53;1.43;;;10.30;99.90;;;;;;4897687;29;20179;-64
2021/05/15 05:10:13;;;;;;;1.40;1.30;;;10.50;99.90;;;;;;4897169;29;20807;-64
2021/05/15 05:12:38;;;;;;;1.77;1.40;;;10.50;99.90;;;;;;4897651;29;20435;-64
2021/05/15 05:15:06;;;;;;;1.50;1.40;;;10.60;99.90;;;;;;4897335;29;20727;-64
2021/05/15 05:17:31;;;;;;;1.77;1.67;;;10.80;99.90;;;;;;4897854;29;20255;-67
2021/05/15 05:19:57;;;;;;;1.50;1.40;;;11.10;99.90;;;;;;4896549;29;20458;-64
2021/05/15 05:22:23;;;;;;;2.23;1.33;;;11.40;99.90;;;;;;4897174;29;20579;-64
2021/05/15 05:24:48;;;;;;;1.63;1.50;;;11.70;99.90;;;;;;4897264;29;20168;-64
2021/05/15 05:27:15;;;;;;;1.80;1.13;;;11.80;99.90;;;;;;4897362;29;20172;-64
2021/05/15 05:29:40;;;;;;;1.53;1.37;;;11.80;99.90;;;;;;4896679;29;20175;-64
2021/05/15 05:32:08;;;;;;;2.33;1.60;;;11.90;99.90;;;;;;4897095;29;20419;-64
2021/05/15 05:34:36;;;;;;;1.80;1.70;;;12.00;99.90;;;;;;4895942;29;20242;-64
2021/05/15 05:37:02;;;;;;;1.73;1.13;;;12.00;99.90;;;;;;4897165;29;20434;-64
2021/05/15 05:39:27;;;;;;;1.93;1.37;;;12.10;99.90;;;;;;4896436;29;20465;-64
2021/05/15 05:41:53;;;;;;;1.30;1.13;;;12.10;99.90;;;;;;4896850;29;21003;-64
2021/05/15 05:44:19;;;;;;;1.30;1.17;;;12.10;99.90;;;;;;4896798;29;20736;-64
2021/05/15 05:46:44;;;;;;;1.77;1.13;;;12.10;99.90;;;;;;4896687;29;20244;-64
2021/05/15 05:49:10;;;;;;;1.10;1.00;;;12.10;99.90;;;;;;4896164;29;20178;-64
2021/05/15 05:51:35;;;;;;;1.93;1.20;;;12.10;99.90;;;;;;4896766;29;20190;-64
2021/05/15 05:54:01;;;;;;;0.80;0.70;;;12.00;99.90;;;;;;4896914;29;20179;-64
2021/05/15 05:56:27;;;;;;;1.20;1.10;;;11.90;99.90;;;;;;4896498;29;20209;-64
2021/05/15 05:58:53;;;;;;;1.77;1.40;;;12.00;99.90;;;;;;4896002;29;20839;-64
2021/05/15 06:01:18;;;;;;;1.30;1.10;;;12.10;99.90;;;;;;4895384;29;20198;-64
2021/05/15 06:03:44;;;;;;;3.13;1.07;;;12.10;99.90;;;;;;4896612;29;20275;-64
2021/05/15 06:06:11;;;;;;;1.03;0.93;;;12.10;99.90;;;;;;4896672;29;20206;-64
2021/05/15 06:08:37;;;;;;;1.17;1.07;;;12.00;99.90;;;;;;4896226;29;20427;-64
2021/05/15 06:11:04;;;;;;;2.03;1.13;;;11.80;99.90;;;;;;4896445;29;20431;-64
2021/05/15 06:13:29;;;;;;;1.67;1.10;;;11.80;99.90;;;;;;4895421;29;20430;-64
2021/05/15 06:15:55;;;;;;;1.30;1.20;;;11.90;99.90;;;;;;4896717;29;20439;-65
2021/05/15 06:18:20;;;;;;;1.30;1.20;;;12.10;99.90;;;;;;4896436;29;20645;-65
2021/05/15 06:20:47;;;;;;;0.90;0.80;;;12.50;99.90;;;;;;4895356;29;20203;-64
2021/05/15 06:23:13;;;;;;;0.90;0.90;;;12.70;99.90;;;;;;4896580;29;20246;-65
2021/05/15 06:25:39;;;;;;;1.00;1.00;;;13.10;99.90;;;;;;4896229;29;20698;-65
2021/05/15 06:28:04;;;;;;;1.20;1.10;;;13.40;99.90;;;;;;4896265;29;20434;-65
2021/05/15 06:30:30;;;;;;;3.40;1.00;;;13.70;99.90;;;;;;4895584;29;20243;-65
2021/05/15 06:32:55;;;;;;;1.10;1.00;;;13.80;99.90;;;;;;4896236;29;20171;-65
2021/05/15 06:35:21;;;;;;;1.67;1.13;;;13.80;99.90;;;;;;4906001;23;20257;-65
2021/05/15 06:37:46;;;;;;;1.40;1.30;;;14.10;99.90;;;;;;4914934;29;20203;-65
2021/05/15 06:40:12;;;;;;;1.60;1.50;;;14.40;99.90;;;;;;4914235;29;20213;-65
2021/05/15 06:42:38;;;;;;;1.20;1.10;;;14.40;99.90;;;;;;4914824;29;20217;-65
2021/05/15 06:45:05;;;;;;;1.50;1.40;;;14.50;99.90;;;;;;4913579;29;20486;-65
2021/05/15 06:47:31;;;;;;;2.00;1.37;;;14.50;99.90;;;;;;4895827;29;20231;-64
2021/05/15 06:49:56;;;;;;;3.43;1.13;;;14.40;99.90;;;;;;4895421;29;20432;-64
2021/05/15 06:52:22;;;;;;;1.93;1.30;;;14.40;99.90;;;;;;4895761;29;20679;-68
2021/05/15 06:54:48;;;;;;;1.07;1.07;;;14.20;99.90;;;;;;4895893;29;20558;-65
2021/05/15 06:57:13;;;;;;;1.57;1.47;;;14.10;99.90;;;;;;4894625;29;20625;-64
2021/05/15 06:59:39;;;;;;;1.50;1.40;;;14.20;99.90;;;;;;4895118;29;20657;-65
2021/05/15 07:02:04;;;;;;;1.63;1.20;;;14.10;99.90;;;;;;4895732;29;20198;-64
2021/05/15 07:04:30;;;;;;;1.40;1.30;;;14.10;99.90;;;;;;4895807;29;20253;-65
2021/05/15 07:06:57;;;;;;;1.03;0.90;;;14.10;99.90;;;;;;4897304;29;20206;-65
2021/05/15 07:09:22;;;;;;;1.57;1.47;;;14.30;99.90;;;;;;4901297;29;20236;-65
2021/05/15 07:11:51;;;;;;;2.00;1.30;;;14.40;99.90;;;;;;4901989;29;20965;-64
2021/05/15 07:14:17;;;;;;;1.30;1.13;;;14.30;99.90;;;;;;4901803;29;20179;-65
2021/05/15 07:16:43;;;;;;;1.10;1.10;;;14.40;99.90;;;;;;4901778;29;20482;-65
2021/05/15 07:19:09;;;;;;;1.67;1.10;;;14.50;99.90;;;;;;4901285;29;20418;-65
2021/05/15 07:21:35;;;;;;;3.53;1.73;;;14.60;99.90;;;;;;4901831;29;20519;-65
2021/05/15 07:24:01;;;;;;;1.87;1.50;;;14.80;99.90;;;;;;4901871;29;20298;-66
2021/05/15 07:26:27;;;;;;;1.80;1.43;;;14.90;99.90;;;;;;4901702;29;20198;-64
2021/05/15 07:28:53;;;;;;;1.77;1.40;;;14.70;99.90;;;;;;4901193;29;20183;-65
2021/05/15 07:31:18;;;;;;;1.13;1.03;;;14.70;99.90;;;;;;4901654;29;20438;-65
2021/05/15 07:33:44;;;;;;;2.13;1.77;;;14.60;99.90;;;;;;4901952;29;20182;-65
2021/05/15 07:36:09;;;;;;;1.87;1.63;;;14.60;99.90;;;;;;4901922;29;20214;-65
2021/05/15 07:38:36;;;;;;;1.60;1.50;;;14.50;99.90;;;;;;4901722;29;20174;-64
2021/05/15 07:41:03;;;;;;;4.77;3.17;;;14.60;99.90;;;;;;4900253;29;20206;-65
2021/05/15 07:43:29;;;;;;;3.43;2.17;;;14.60;99.90;;;;;;4901702;29;20806;-64
2021/05/15 07:45:56;;;;;;;4.13;3.20;;;14.60;99.90;;;;;;4901800;29;20450;-65
2021/05/15 07:48:29;;;;;;;3.17;2.97;;;14.60;99.90;;;;;;4901538;29;20239;-65
2021/05/15 07:50:59;;;;;;;2.37;2.27;;;14.70;99.90;;;;;;4901041;29;20442;-65
2021/05/15 07:53:26;;;;;;;3.67;3.40;;;14.80;99.90;;;;;;4901577;29;20430;-65
2021/05/15 07:55:52;;;;;;;2.67;2.47;;;14.80;99.90;;;;;;4901506;29;20821;-65
2021/05/15 07:58:18;;;;;;;2.60;2.40;;;14.70;99.90;;;;;;4901392;29;20932;-65
2021/05/15 08:00:44;;;;;;;2.33;1.70;;;14.70;99.90;;;;;;4900877;29;20470;-64
2021/05/15 08:03:10;;;;;;;5.77;3.23;;;14.80;99.90;;;;;;4901613;29;20431;-65
2021/05/15 08:05:36;;;;;;;3.57;3.17;;;15.00;99.90;;;;;;4901450;29;20600;-64
2021/05/15 08:08:02;;;;;;;5.17;4.77;;;15.00;99.90;;;;;;4901374;29;20239;-65
2021/05/15 08:10:30;;;;;;;3.60;3.23;;;14.90;99.90;;;;;;4900772;29;20455;-65
2021/05/15 08:12:56;;;;;;;3.20;3.00;;;14.90;99.90;;;;;;4901328;29;20423;-64
2021/05/15 08:15:22;;;;;;;2.93;2.73;;;14.90;99.90;;;;;;4901331;29;20447;-65
2021/05/15 08:17:47;;;;;;;2.10;2.00;;;14.90;99.90;;;;;;4901184;29;20434;-65
2021/05/15 08:20:13;;;;;;;7.50;6.90;;;14.80;99.90;;;;;;4896686;29;20175;-67
2021/05/15 08:22:39;;;;;;;4.33;3.40;;;14.70;99.90;;;;;;4898250;29;20289;-68
2021/05/15 08:25:07;;;;;;;3.67;3.37;;;14.60;99.90;;;;;;4898184;29;20514;-65
2021/05/15 08:27:37;;;;;;;2.90;1.50;;;14.30;99.90;;;;;;4898359;29;20311;-65
2021/05/15 08:30:03;;;;;;;4.50;1.77;;;14.20;99.90;;;;;;4897718;29;20430;-63
2021/05/15 08:32:29;;;;;;;5.00;4.63;;;14.00;99.90;;;;;;4898079;29;20423;-64
2021/05/15 08:34:54;;;;;;;5.70;4.83;;;14.20;99.90;;;;;;4898224;29;20442;-65
2021/05/15 08:37:20;;;;;;;1.77;1.40;;;14.40;99.90;;;;;;4897852;29;20214;-64
2021/05/15 08:39:45;;;;;;;1.70;1.60;;;14.70;99.90;;;;;;4897382;29;20198;-65
2021/05/15 08:42:11;;;;;;;4.57;3.30;;;15.00;99.90;;;;;;4898003;29;20250;-65
2021/05/15 08:44:38;;;;;;;4.70;4.23;;;14.90;99.90;;;;;;4898065;29;20175;-65
2021/05/15 08:47:07;;;;;;;6.93;2.27;;;15.00;99.90;;;;;;4898090;29;20446;-65
2021/05/15 08:49:35;;;;;;;3.27;3.07;;;15.00;99.90;;;;;;4897454;29;20415;-64
2021/05/15 08:52:02;;;;;;;3.10;2.20;;;15.00;99.90;;;;;;4897810;29;20434;-65
2021/05/15 08:54:28;;;;;;;2.27;1.83;;;14.90;99.90;;;;;;4897660;29;20834;-65
2021/05/15 08:56:53;;;;;;;9.70;9.00;;;15.10;99.90;;;;;;4897795;29;20431;-65
2021/05/15 08:59:19;;;;;;;2.83;2.50;;;15.30;99.90;;;;;;4897350;29;20426;-65
2021/05/15 09:01:45;;;;;;;11.00;10.03;;;15.20;99.90;;;;;;4897778;29;20642;-65
2021/05/15 09:04:11;;;;;;;12.07;11.10;;;15.30;99.90;;;;;;4897768;29;20186;-64
2021/05/15 09:06:41;;;;;;;14.03;12.80;;;15.20;99.90;;;;;;4897692;29;20446;-65
2021/05/15 09:09:07;;;;;;;12.37;11.27;;;15.10;99.90;;;;;;4895919;29;20800;-65
2021/05/15 09:11:32;;;;;;;8.77;8.07;;;15.30;99.90;;;;;;4897750;29;20427;-65
2021/05/15 09:13:58;;;;;;;4.03;2.80;;;15.60;99.90;;;;;;4897960;29;20175;-65
2021/05/15 09:16:24;;;;;;;4.80;4.47;;;15.60;99.90;;;;;;4896370;29;20572;-65
2021/05/15 09:18:50;;;;;;;4.43;4.13;;;15.80;99.90;;;;;;4897055;29;20171;-65
2021/05/15 09:21:22;;;;;;;4.10;3.80;;;16.20;99.90;;;;;;4896077;29;20459;-65
2021/05/15 09:23:50;;;;;;;7.07;6.47;;;16.50;99.90;;;;;;4895959;29;20525;-65
2021/05/15 09:26:21;;;;;;;1.27;1.17;;;16.60;99.90;;;;;;4897237;29;20965;-65
2021/05/15 09:28:49;;;;;;;3.87;3.57;;;16.40;99.90;;;;;;4896797;29;20423;-65
2021/05/15 09:31:26;;;;;;;1.70;1.50;;;16.70;99.90;;;;;;4897089;29;20423;-65
2021/05/15 09:33:58;;;;;;;1.90;1.80;;;17.50;99.90;;;;;;4897356;29;20431;-65
2021/05/15 09:36:26;;;;;;;1.70;1.60;;;17.50;99.90;;;;;;4897066;29;20465;-65
2021/05/15 09:39:04;;;;;;;3.03;2.43;;;17.80;99.90;;;;;;4896460;29;20440;-65
2021/05/15 09:41:36;;;;;;;5.53;5.13;;;17.90;99.90;;;;;;4896898;29;20534;-65
2021/05/15 09:44:06;;;;;;;4.03;2.47;;;17.90;99.90;;;;;;4897070;29;20515;-65
2021/05/15 09:46:34;;;;;;;5.20;4.83;;;17.50;99.90;;;;;;4896698;29;20491;-65
2021/05/15 09:48:59;;;;;;;5.93;5.33;;;17.60;99.90;;;;;;4896583;29;20450;-64
2021/05/15 09:51:25;;;;;;;8.00;7.30;;;17.50;99.90;;;;;;4896877;29;21025;-65
2021/05/15 09:53:51;;;;;;;3.87;3.50;;;17.70;99.90;;;;;;4895790;29;20175;-65
2021/05/15 09:56:27;;;;;;;2.20;1.60;;;17.50;99.90;;;;;;4896622;29;20218;-65
2021/05/15 09:58:53;;;;;;;7.50;6.80;;;17.30;99.90;;;;;;4895932;29;20206;-65
2021/05/15 10:01:18;;;;;;;4.40;4.10;;;17.20;99.90;;;;;;4896313;29;20490;-65
2021/05/15 10:03:47;;;;;;;1.53;1.43;;;17.20;99.90;;;;;;4896546;29;20270;-65
2021/05/15 10:06:16;;;;;;;3.77;3.47;;;17.00;99.90;;;;;;4896245;29;20613;-65
2021/05/15 10:08:43;;;;;;;57.50;40.37;;;16.80;99.90;;;;;;4895835;29;20511;-65
2021/05/15 10:11:09;;;;;;;9.47;8.50;;;17.00;99.90;;;;;;4896382;29;20423;-64
2021/05/15 10:13:37;;;;;;;3.63;3.33;;;17.00;99.90;;;;;;4896255;29;20483;-65
2021/05/15 10:16:04;;;;;;;5.93;1.83;;;17.00;99.90;;;;;;4896213;29;20482;-65
2021/05/15 10:18:31;;;;;;;4.53;2.00;;;16.90;99.90;;;;;;4896473;29;20940;-64
2021/05/15 10:20:57;;;;;;;7.40;7.00;;;16.70;99.90;;;;;;4895478;29;20451;-64
2021/05/15 10:23:25;;;;;;;4.93;4.53;;;16.50;99.90;;;;;;4896428;29;20459;-65
2021/05/15 10:26:20;;;;;;;8.20;5.80;;;16.30;99.90;;;;;;4896338;29;20439;-65
2021/05/15 10:29:03;;;;;;;5.67;4.90;;;16.20;99.90;;;;;;4895037;29;20499;-64
2021/05/15 10:31:37;;;;;;;4.03;3.73;;;17.20;99.60;;;;;;4896202;29;20429;-65
2021/05/15 10:34:03;;;;;;;24.70;21.50;;;18.00;99.40;;;;;;4896019;29;20505;-65
2021/05/15 10:36:29;;;;;;;17.93;16.13;;;18.60;97.40;;;;;;4895635;29;20471;-65
2021/05/15 10:38:55;;;;;;;3.40;2.53;;;18.90;96.20;;;;;;4895337;29;20429;-64
2021/05/15 10:41:25;;;;;;;2.97;1.70;;;19.10;94.50;;;;;;4895878;29;20234;-64
2021/05/15 10:43:51;;;;;;;3.00;1.50;;;19.20;94.50;;;;;;4895985;29;20424;-65
2021/05/15 10:46:26;;;;;;;1.83;1.50;;;19.00;94.10;;;;;;4895898;29;20983;-64
2021/05/15 10:49:01;;;;;;;5.07;4.50;;;18.00;95.60;;;;;;4895221;29;20419;-65
2021/05/15 10:51:39;;;;;;;2.70;2.47;;;18.00;96.10;;;;;;4895894;29;20427;-65
2021/05/15 10:54:05;;;;;;;2.90;1.60;;;18.30;93.70;;;;;;4895946;29;20451;-65
2021/05/15 10:56:31;;;;;;;3.20;2.90;;;17.80;94.10;;;;;;4895610;29;20447;-65
2021/05/15 10:59:07;;;;;;;4.00;1.67;;;17.30;94.70;;;;;;4895110;29;20433;-64
2021/05/15 11:01:49;;;;;;;3.60;1.63;;;16.80;95.40;;;;;;4894228;29;20464;-65
2021/05/15 11:04:31;;;;;;;1.87;1.50;;;16.70;95.70;;;;;;4895813;29;20506;-65
2021/05/15 11:07:00;;;;;;;4.00;3.60;;;16.60;97.10;;;;;;4895599;29;20818;-64
2021/05/15 11:09:27;;;;;;;6.97;4.47;;;16.40;96.40;;;;;;4895091;29;20423;-65
2021/05/15 11:11:53;;;;;;;18.20;12.70;;;16.40;96.20;;;;;;4895712;29;20431;-65
2021/05/15 11:14:29;;;;;;;6.60;5.67;;;16.40;95.40;;;;;;4895603;29;20443;-65
2021/05/15 11:17:15;;;;;;;15.40;11.40;;;16.40;95.70;;;;;;4895593;29;20960;-64
2021/05/15 11:20:14;;;;;;;2.33;1.83;;;16.60;96.10;;;;;;4894936;29;20777;-65
2021/05/15 11:22:40;;;;;;;9.87;6.30;;;16.80;95.70;;;;;;4895307;29;20514;-64
2021/05/15 11:25:20;;;;;;;2.90;2.20;;;17.00;96.50;;;;;;4895738;29;20443;-65
2021/05/15 11:27:47;;;;;;;4.93;2.07;;;17.00;96.00;;;;;;4895502;29;20179;-64
2021/05/15 11:30:17;;;;;;;3.20;1.83;;;16.90;95.40;;;;;;4894857;29;20449;-64
2021/05/15 11:33:03;;;;;;;2.47;2.27;;;16.60;95.30;;;;;;4895414;29;20433;-65
2021/05/15 11:35:31;;;;;;;3.43;3.13;;;16.60;96.30;;;;;;4895244;29;20450;-65
2021/05/15 11:38:03;;;;;;;2.70;1.37;;;17.00;96.00;;;;;;4895669;29;20431;-65
2021/05/15 11:40:29;;;;;;;1.90;1.80;;;17.50;95.10;;;;;;4895061;29;20499;-67
2021/05/15 11:42:56;;;;;;;1.50;1.40;;;18.30;94.00;;;;;;4895381;29;20466;-67
2021/05/15 11:45:26;;;;;;;2.53;1.83;;;18.60;92.90;;;;;;4895213;29;20202;-67
2021/05/15 11:48:05;;;;;;;1.87;1.53;;;18.70;92.20;;;;;;4895830;29;20804;-67
2021/05/15 11:50:31;;;;;;;2.47;1.40;;;19.00;91.90;;;;;;4894682;29;20921;-65
2021/05/15 11:53:03;;;;;;;1.70;1.60;;;18.90;92.20;;;;;;4895800;29;20433;-65
2021/05/15 11:55:30;;;;;;;4.70;1.73;;;18.60;92.10;;;;;;4898802;29;20198;-65
2021/05/15 11:58:01;;;;;;;2.90;1.60;;;18.40;92.50;;;;;;4898788;29;20513;-65
2021/05/15 12:00:28;;;;;;;1.77;1.67;;;18.60;92.30;;;;;;4898035;29;20428;-64
2021/05/15 12:02:54;;;;;;;1.80;1.70;;;18.60;92.10;;;;;;4899011;29;20470;-65
2021/05/15 12:05:20;;;;;;;1.43;1.33;;;18.70;91.80;;;;;;4899234;29;20458;-65
2021/05/15 12:07:46;;;;;;;2.90;2.03;;;18.60;88.70;;;;;;4898614;29;20483;-64
2021/05/15 12:10:18;;;;;;;3.87;1.70;;;18.40;90.60;;;;;;4897873;29;20419;-64
2021/05/15 12:12:53;;;;;;;3.10;1.40;;;18.50;89.80;;;;;;4898659;29;20426;-65
2021/05/15 12:15:20;;;;;;;2.00;1.90;;;18.90;90.10;;;;;;4898669;29;20438;-65
2021/05/15 12:17:46;;;;;;;2.10;1.70;;;19.10;89.70;;;;;;4898550;29;20438;-65
2021/05/15 12:20:23;;;;;;;1.77;1.67;;;19.20;88.50;;;;;;4897867;29;20817;-65
2021/05/15 12:22:50;;;;;;;2.40;2.20;;;19.30;88.80;;;;;;4898306;29;20622;-64
2021/05/15 12:25:16;;;;;;;1.90;1.37;;;19.20;89.30;;;;;;4898313;29;20526;-65
2021/05/15 12:27:42;;;;;;;2.30;1.83;;;18.80;89.10;;;;;;4897992;29;20919;-65
2021/05/15 12:30:08;;;;;;;1.90;1.80;;;18.60;89.90;;;;;;4897375;29;20426;-65
2021/05/15 12:32:35;;;;;;;1.73;1.60;;;18.40;90.20;;;;;;4897804;29;20197;-65
2021/05/15 12:35:06;;;;;;;1.77;1.67;;;18.80;90.30;;;;;;4897313;29;20434;-65
2021/05/15 12:37:37;;;;;;;2.17;1.40;;;18.90;89.20;;;;;;4936756;23;20494;-64
2021/05/15 12:40:04;;;;;;;2.67;1.63;;;18.80;89.10;;;;;;4916516;29;20904;-65
2021/05/15 12:42:30;;;;;;;2.70;1.50;;;18.60;89.10;;;;;;4916884;29;20517;-65
2021/05/15 12:45:07;;;;;;;2.80;1.47;;;18.20;90.10;;;;;;4916925;29;20433;-65
2021/05/15 12:47:37;;;;;;;1.57;1.47;;;18.10;91.20;;;;;;4899631;29;20447;-64
2021/05/15 12:50:30;;;;;;;2.77;2.00;;;18.00;90.70;;;;;;4897494;29;20474;-65
2021/05/15 12:53:09;;;;;;;3.83;2.23;;;18.00;90.80;;;;;;4898181;29;20435;-65
2021/05/15 12:55:48;;;;;;;2.23;1.90;;;18.20;90.50;;;;;;4898293;29;20427;-65
2021/05/15 12:58:18;;;;;;;2.27;1.83;;;18.10;89.80;;;;;;4897922;29;20430;-64
2021/05/15 13:01:03;;;;;;;4.20;1.50;;;17.60;89.70;;;;;;4896908;29;20439;-65